createdAt,value
2019-05-18T00:02:14.314Z,26.80
2019-05-18T00:04:43.236Z,27.17
2019-05-18T00:07:12.099Z,27.48
2019-05-18T00:09:41.048Z,28.95
2019-05-18T00:12:10.105Z,28.27
2019-05-18T00:14:39.055Z,28.30
2019-05-18T00:17:23.191Z,27.73
2019-05-18T00:19:38.753Z,27.82
2019-05-18T00:22:07.738Z,28.20
2019-05-18T00:24:36.751Z,30.08
2019-05-18T00:27:05.669Z,31.17
2019-05-18T00:29:34.593Z,30.65
2019-05-18T00:32:04.117Z,27.58
2019-05-18T00:34:33.193Z,27.15
2019-05-18T00:37:02.117Z,30.20
2019-05-18T00:39:31.157Z,28.23
2019-05-18T00:42:00.167Z,31.13
2019-05-18T00:44:29.423Z,31.07
2019-05-18T00:46:58.440Z,29.67
2019-05-18T00:49:27.327Z,30.55
2019-05-18T00:51:56.136Z,29.75
2019-05-18T00:54:25.275Z,30.15
2019-05-18T00:56:54.103Z,31.27
2019-05-18T00:59:23.028Z,31.30
2019-05-18T01:01:52.075Z,31.95
2019-05-18T01:04:20.913Z,33.25
2019-05-18T01:06:52.907Z,32.05
2019-05-18T01:09:21.919Z,32.20
2019-05-18T01:11:50.918Z,31.48
2019-05-18T01:14:19.840Z,29.70
2019-05-18T01:16:48.776Z,30.80
2019-05-18T01:19:17.639Z,32.15
2019-05-18T01:21:46.520Z,33.40
2019-05-18T01:24:17.385Z,31.70
2019-05-18T01:26:45.897Z,30.72
2019-05-18T01:29:14.770Z,32.40
2019-05-18T01:31:43.554Z,31.65
2019-05-18T01:34:12.396Z,31.17
2019-05-18T01:36:41.310Z,31.27
2019-05-18T01:39:10.398Z,33.15
2019-05-18T01:41:39.361Z,31.75
2019-05-18T01:44:08.483Z,31.82
2019-05-18T01:46:37.364Z,32.17
2019-05-18T01:49:06.269Z,34.45
2019-05-18T01:51:35.299Z,32.40
2019-05-18T01:54:04.227Z,32.25
2019-05-18T01:56:33.027Z,33.28
2019-05-18T01:59:02.056Z,33.35
2019-05-18T02:01:30.988Z,33.28
2019-05-18T02:03:59.938Z,34.73
2019-05-18T02:06:28.894Z,34.90
2019-05-18T02:08:57.941Z,35.80
2019-05-18T02:11:26.882Z,37.10
2019-05-18T02:13:55.822Z,35.30
2019-05-18T02:16:24.869Z,35.00
2019-05-18T02:18:53.866Z,36.30
2019-05-18T02:21:22.748Z,36.17
2019-05-18T02:23:51.583Z,36.70
2019-05-18T02:26:20.467Z,36.65
2019-05-18T02:28:50.479Z,38.13
2019-05-18T02:31:19.324Z,37.83
2019-05-18T02:33:48.226Z,36.70
2019-05-18T02:36:17.197Z,36.40
2019-05-18T02:38:46.075Z,39.13
2019-05-18T02:41:14.889Z,37.48
2019-05-18T02:43:43.934Z,37.10
2019-05-18T02:46:12.877Z,37.48
2019-05-18T02:48:49.769Z,37.90
2019-05-18T02:51:12.342Z,38.98
2019-05-18T02:53:41.365Z,36.75
2019-05-18T02:56:10.355Z,38.25
2019-05-18T02:58:39.206Z,38.90
2019-05-18T03:01:08.177Z,36.90
2019-05-18T03:03:36.963Z,37.23
2019-05-18T03:06:06.002Z,38.90
2019-05-18T03:08:35.006Z,40.50
2019-05-18T03:11:03.887Z,40.70
2019-05-18T03:13:32.943Z,39.40
2019-05-18T03:16:01.834Z,41.10
2019-05-18T03:18:30.796Z,41.50
2019-05-18T03:21:00.069Z,42.80
2019-05-18T03:23:28.937Z,42.17
2019-05-18T03:25:57.706Z,40.60
2019-05-18T03:28:26.619Z,41.70
2019-05-18T03:30:55.491Z,41.18
2019-05-18T03:33:29.155Z,41.80
2019-05-18T03:35:55.048Z,40.00
2019-05-18T03:38:23.999Z,43.40
2019-05-18T03:40:52.983Z,42.95
2019-05-18T03:43:21.752Z,42.58
2019-05-18T03:45:50.577Z,41.42
2019-05-18T03:48:19.538Z,42.35
2019-05-18T03:50:48.477Z,41.42
2019-05-18T03:53:18.225Z,41.07
2019-05-18T03:55:47.589Z,40.65
2019-05-18T03:58:16.832Z,42.73
2019-05-18T04:00:45.778Z,42.33
2019-05-18T04:03:14.799Z,42.00
2019-05-18T04:05:43.686Z,41.87
2019-05-18T04:08:12.560Z,42.50
2019-05-18T04:10:41.382Z,42.78
2019-05-18T04:13:10.220Z,40.80
2019-05-18T04:15:39.820Z,41.35
2019-05-18T04:18:08.700Z,45.35
2019-05-18T04:20:37.561Z,41.63
2019-05-18T04:23:06.564Z,41.02
2019-05-18T04:25:35.555Z,41.80
2019-05-18T04:28:05.344Z,43.40
2019-05-18T04:30:34.322Z,42.58
2019-05-18T04:33:03.402Z,42.55
2019-05-18T04:35:32.414Z,42.95
2019-05-18T04:38:01.218Z,42.10
2019-05-18T04:40:30.140Z,42.00
2019-05-18T04:42:59.088Z,43.27
2019-05-18T04:45:27.861Z,41.28
2019-05-18T04:47:56.809Z,47.27
2019-05-18T04:50:25.747Z,42.83
2019-05-18T04:52:54.594Z,43.50
2019-05-18T04:55:23.467Z,43.00
2019-05-18T04:57:52.377Z,41.70
2019-05-18T05:00:21.446Z,43.78
2019-05-18T05:02:50.461Z,41.80
2019-05-18T05:05:19.412Z,41.35
2019-05-18T05:07:48.250Z,43.30
2019-05-18T05:10:17.114Z,46.63
2019-05-18T05:12:45.919Z,42.55
2019-05-18T05:15:14.997Z,43.60
2019-05-18T05:17:43.947Z,44.08
2019-05-18T05:20:19.745Z,44.48
2019-05-18T05:22:43.583Z,44.03
2019-05-18T05:25:12.608Z,43.85
2019-05-18T05:27:41.467Z,43.33
2019-05-18T05:30:11.263Z,42.50
2019-05-18T05:32:40.201Z,42.03
2019-05-18T05:35:09.149Z,41.10
2019-05-18T05:37:38.086Z,40.38
2019-05-18T05:40:07.140Z,41.15
2019-05-18T05:42:36.093Z,39.90
2019-05-18T05:45:07.313Z,40.78
2019-05-18T05:47:36.286Z,38.78
2019-05-18T05:50:06.709Z,40.35
2019-05-18T05:52:35.557Z,38.78
2019-05-18T05:55:04.815Z,37.13
2019-05-18T05:57:33.709Z,37.77
2019-05-18T06:00:02.517Z,34.30
2019-05-18T06:02:31.416Z,35.55
2019-05-18T06:05:00.355Z,33.50
2019-05-18T06:07:29.248Z,34.17
2019-05-18T06:09:58.075Z,29.37
2019-05-18T06:12:26.923Z,30.68
2019-05-18T06:14:55.831Z,31.05
2019-05-18T06:17:25.106Z,28.53
2019-05-18T06:19:53.922Z,30.82
2019-05-18T06:22:22.748Z,27.65
2019-05-18T06:24:51.738Z,27.42
2019-05-18T06:27:20.575Z,26.33
2019-05-18T06:29:49.408Z,23.70
2019-05-18T06:32:18.500Z,22.95
2019-05-18T06:34:47.318Z,20.37
2019-05-18T06:37:16.278Z,21.23
2019-05-18T06:39:45.154Z,21.50
2019-05-18T06:42:13.934Z,21.57
2019-05-18T06:44:43.115Z,17.32
2019-05-18T06:47:12.102Z,19.52
2019-05-18T06:49:40.902Z,18.62
2019-05-18T06:52:09.743Z,19.70
2019-05-18T06:54:38.600Z,17.60
2019-05-18T06:57:08.700Z,18.15
2019-05-18T06:59:38.177Z,18.20
2019-05-18T07:02:07.264Z,18.00
2019-05-18T07:04:36.204Z,17.35
2019-05-18T07:07:05.328Z,17.52
2019-05-18T07:09:34.679Z,16.10
2019-05-18T07:12:03.726Z,16.87
2019-05-18T07:14:32.796Z,16.07
2019-05-18T07:17:01.864Z,15.60
2019-05-18T07:19:30.839Z,15.50
2019-05-18T07:21:59.755Z,14.33
2019-05-18T07:24:28.601Z,13.43
2019-05-18T07:26:57.720Z,13.68
2019-05-18T07:29:26.970Z,13.20
2019-05-18T07:31:55.879Z,19.73
2019-05-18T07:34:26.654Z,13.85
2019-05-18T07:36:55.581Z,13.08
2019-05-18T07:39:24.624Z,12.37
2019-05-18T07:41:53.391Z,15.80
2019-05-18T07:44:22.448Z,13.73
2019-05-18T07:46:53.082Z,13.15
2019-05-18T07:49:21.918Z,12.98
2019-05-18T07:51:50.816Z,13.17
2019-05-18T07:54:19.789Z,13.10
2019-05-18T07:56:48.716Z,14.20
2019-05-18T07:59:19.862Z,14.58
2019-05-18T08:01:48.177Z,14.35
2019-05-18T08:04:18.289Z,14.60
2019-05-18T08:06:47.174Z,13.85
2019-05-18T08:09:16.137Z,13.47
2019-05-18T08:11:44.991Z,19.20
2019-05-18T08:14:13.914Z,12.70
2019-05-18T08:16:42.913Z,13.58
2019-05-18T08:19:11.953Z,14.80
2019-05-18T08:21:52.833Z,15.15
2019-05-18T08:24:11.639Z,13.60
2019-05-18T08:26:40.651Z,14.23
2019-05-18T08:29:09.565Z,13.98
2019-05-18T08:31:38.422Z,13.48
2019-05-18T08:34:07.413Z,14.38
2019-05-18T08:36:36.390Z,14.10
2019-05-18T08:39:06.180Z,14.43
2019-05-18T08:41:35.319Z,13.48
2019-05-18T08:44:04.191Z,12.30
2019-05-18T08:46:33.216Z,13.93
2019-05-18T08:49:02.135Z,11.95
2019-05-18T08:51:31.103Z,12.98
2019-05-18T08:54:00.017Z,12.40
2019-05-18T08:56:29.075Z,12.37
2019-05-18T08:58:58.421Z,12.53
2019-05-18T09:01:27.233Z,11.25
2019-05-18T09:03:56.168Z,11.22
2019-05-18T09:06:25.007Z,12.85
2019-05-18T09:08:53.912Z,18.25
2019-05-18T09:11:22.817Z,11.03
2019-05-18T09:13:51.645Z,13.08
2019-05-18T09:16:20.612Z,12.10
2019-05-18T09:18:49.772Z,12.75
2019-05-18T09:21:18.635Z,12.45
2019-05-18T09:23:47.484Z,11.88
2019-05-18T09:26:16.522Z,10.75
2019-05-18T09:28:45.638Z,11.50
2019-05-18T09:31:14.611Z,11.43
2019-05-18T09:33:43.581Z,12.40
2019-05-18T09:36:12.411Z,11.12
2019-05-18T09:38:41.285Z,11.88
2019-05-18T09:41:10.133Z,11.33
2019-05-18T09:43:39.144Z,12.25
2019-05-18T09:46:08.119Z,9.98
2019-05-18T09:48:37.048Z,10.10
2019-05-18T09:51:05.999Z,9.58
2019-05-18T09:53:34.887Z,10.70
2019-05-18T09:56:03.835Z,10.10
2019-05-18T09:58:32.856Z,11.25
2019-05-18T10:01:01.897Z,9.57
2019-05-18T10:03:30.991Z,8.98
2019-05-18T10:05:59.896Z,8.88
2019-05-18T10:08:28.836Z,9.20
2019-05-18T10:10:57.728Z,8.93
2019-05-18T10:13:26.662Z,8.83
2019-05-18T10:15:55.595Z,9.77
2019-05-18T10:18:24.478Z,9.10
2019-05-18T10:20:53.301Z,9.08
2019-05-18T10:23:22.399Z,8.70
2019-05-18T10:25:51.280Z,9.10
2019-05-18T10:28:20.187Z,9.70
2019-05-18T10:30:49.028Z,7.37
2019-05-18T10:33:17.918Z,7.25
2019-05-18T10:35:46.824Z,9.20
2019-05-18T10:38:15.805Z,9.65
2019-05-18T10:40:44.738Z,8.90
2019-05-18T10:43:13.802Z,8.70
2019-05-18T10:45:45.021Z,9.08
2019-05-18T10:48:13.484Z,7.70
2019-05-18T10:50:43.492Z,7.40
2019-05-18T10:53:27.421Z,7.35
2019-05-18T10:55:43.122Z,6.70
2019-05-18T10:58:12.026Z,9.20
2019-05-18T11:00:40.862Z,10.45
2019-05-18T11:03:09.876Z,10.30
2019-05-18T11:05:38.856Z,11.30
2019-05-18T11:08:07.795Z,11.80
2019-05-18T11:10:36.696Z,11.15
2019-05-18T11:13:05.619Z,11.00
2019-05-18T11:15:43.547Z,10.70
2019-05-18T11:18:12.485Z,12.60
2019-05-18T11:20:41.342Z,10.23
2019-05-18T11:23:10.298Z,10.78
2019-05-18T11:25:39.325Z,9.85
2019-05-18T11:28:08.302Z,9.30
2019-05-18T11:30:37.356Z,9.50
2019-05-18T11:33:06.338Z,8.20
2019-05-18T11:35:35.147Z,8.35
2019-05-18T11:38:04.137Z,9.60
2019-05-18T11:40:33.090Z,8.93
2019-05-18T11:43:01.907Z,9.45
2019-05-18T11:45:30.824Z,8.40
2019-05-18T11:47:59.748Z,9.03
2019-05-18T11:50:28.814Z,9.38
2019-05-18T11:52:57.676Z,9.38
2019-05-18T11:55:26.543Z,9.33
2019-05-18T11:57:55.584Z,8.35
2019-05-18T12:00:25.997Z,7.47
2019-05-18T12:02:55.041Z,8.35
2019-05-18T12:05:23.944Z,7.80
2019-05-18T12:07:52.817Z,7.78
2019-05-18T12:10:23.193Z,6.62
2019-05-18T12:12:52.107Z,6.05
2019-05-18T12:15:21.912Z,5.80
2019-05-18T12:17:50.950Z,5.80
2019-05-18T12:20:22.660Z,5.95
2019-05-18T12:22:51.523Z,4.90
2019-05-18T12:25:20.552Z,5.37
2019-05-18T12:27:49.447Z,6.22
2019-05-18T12:30:19.376Z,6.50
2019-05-18T12:32:48.230Z,6.70
2019-05-18T12:35:17.679Z,6.92
2019-05-18T12:37:46.475Z,5.75
2019-05-18T12:40:18.489Z,5.80
2019-05-18T12:42:47.469Z,6.00
2019-05-18T12:45:18.213Z,6.50
2019-05-18T12:47:47.132Z,5.17
2019-05-18T12:50:17.352Z,5.10
2019-05-18T12:52:46.376Z,5.47
2019-05-18T12:55:16.040Z,4.95
2019-05-18T12:57:44.929Z,5.90
2019-05-18T13:00:14.731Z,5.05
2019-05-18T13:02:43.767Z,4.35
2019-05-18T13:05:14.341Z,3.60
2019-05-18T13:07:43.132Z,4.22
2019-05-18T13:10:13.290Z,4.42
2019-05-18T13:12:42.211Z,4.03
2019-05-18T13:15:11.928Z,4.28
2019-05-18T13:17:40.810Z,4.37
2019-05-18T13:20:10.743Z,4.60
2019-05-18T13:22:39.812Z,4.92
2019-05-18T13:25:09.721Z,4.33
2019-05-18T13:27:40.042Z,3.90
2019-05-18T13:30:10.590Z,4.60
2019-05-18T13:32:39.545Z,4.20
2019-05-18T13:35:09.108Z,5.00
2019-05-18T13:37:38.045Z,4.40
2019-05-18T13:40:08.205Z,5.47
2019-05-18T13:42:37.265Z,6.83
2019-05-18T13:45:06.846Z,4.87
2019-05-18T13:47:35.899Z,4.92
2019-05-18T13:50:05.446Z,4.70
2019-05-18T13:52:34.351Z,4.42
2019-05-18T13:55:04.970Z,3.50
2019-05-18T13:57:34.261Z,4.80
2019-05-18T14:00:03.372Z,4.17
2019-05-18T14:02:32.265Z,3.70
2019-05-18T14:05:01.175Z,3.70
2019-05-18T14:07:30.201Z,3.90
2019-05-18T14:09:59.188Z,3.60
2019-05-18T14:12:28.112Z,3.37
2019-05-18T14:14:57.018Z,4.95
2019-05-18T14:17:25.929Z,4.15
2019-05-18T14:19:55.023Z,3.40
2019-05-18T14:22:23.976Z,4.00
2019-05-18T14:24:53.056Z,3.55
2019-05-18T14:27:22.008Z,3.20
2019-05-18T14:29:51.188Z,3.55
2019-05-18T14:32:20.363Z,3.65
2019-05-18T14:34:49.392Z,3.17
2019-05-18T14:37:18.410Z,4.28
2019-05-18T14:39:47.366Z,3.35
2019-05-18T14:42:16.497Z,3.50
2019-05-18T14:44:45.521Z,3.40
2019-05-18T14:47:14.582Z,3.05
2019-05-18T14:49:43.579Z,3.65
2019-05-18T14:52:12.508Z,3.15
2019-05-18T14:54:41.395Z,5.08
2019-05-18T14:57:10.436Z,3.50
2019-05-18T14:59:39.355Z,3.30
2019-05-18T15:02:08.486Z,3.70
2019-05-18T15:04:38.723Z,2.90
2019-05-18T15:07:07.658Z,2.70
2019-05-18T15:09:36.653Z,3.27
2019-05-18T15:12:05.635Z,2.80
2019-05-18T15:14:34.618Z,4.58
2019-05-18T15:17:03.623Z,3.50
2019-05-18T15:19:32.525Z,3.90
2019-05-18T15:22:01.392Z,3.40
2019-05-18T15:24:30.251Z,3.45
2019-05-18T15:26:59.056Z,4.03
2019-05-18T15:29:28.012Z,3.35
2019-05-18T15:31:56.837Z,3.65
2019-05-18T15:34:25.693Z,3.30
2019-05-18T15:36:54.686Z,4.05
2019-05-18T15:39:23.527Z,3.60
2019-05-18T15:41:52.513Z,3.30
2019-05-18T15:44:21.410Z,3.65
2019-05-18T15:46:50.616Z,4.25
2019-05-18T15:49:19.559Z,5.50
2019-05-18T15:51:48.430Z,3.80
2019-05-18T15:54:17.471Z,5.05
2019-05-18T15:56:46.351Z,4.87
2019-05-18T15:59:15.308Z,3.90
2019-05-18T16:01:44.239Z,3.00
2019-05-18T16:04:13.301Z,5.50
2019-05-18T16:06:42.296Z,3.90
2019-05-18T16:09:11.458Z,4.13
2019-05-18T16:11:40.815Z,3.50
2019-05-18T16:14:09.687Z,3.40
2019-05-18T16:16:38.636Z,4.22
2019-05-18T16:19:07.692Z,4.53
2019-05-18T16:21:36.540Z,3.60
2019-05-18T16:24:07.870Z,3.30
2019-05-18T16:26:36.683Z,4.28
2019-05-18T16:29:05.664Z,4.00
2019-05-18T16:31:34.861Z,6.62
2019-05-18T16:34:03.794Z,3.40
2019-05-18T16:36:32.734Z,4.30
2019-05-18T16:39:01.653Z,3.80
2019-05-18T16:41:30.457Z,5.53
2019-05-18T16:43:59.268Z,3.90
2019-05-18T16:46:28.049Z,4.08
2019-05-18T16:48:56.923Z,3.80
2019-05-18T16:51:25.893Z,4.30
2019-05-18T16:53:55.000Z,4.40
2019-05-18T16:56:34.555Z,4.00
2019-05-18T16:58:54.484Z,4.30
2019-05-18T17:01:23.419Z,4.37
2019-05-18T17:03:52.306Z,4.37
2019-05-18T17:06:21.177Z,4.22
2019-05-18T17:08:52.796Z,4.90
2019-05-18T17:11:21.782Z,4.00
2019-05-18T17:13:50.735Z,3.85
2019-05-18T17:16:19.628Z,5.20
2019-05-18T17:18:48.530Z,5.15
2019-05-18T17:21:17.633Z,4.83
2019-05-18T17:23:46.537Z,3.50
2019-05-18T17:26:15.393Z,4.95
2019-05-18T17:28:44.358Z,4.25
2019-05-18T17:31:13.352Z,3.50
2019-05-18T17:33:42.455Z,3.80
2019-05-18T17:36:11.300Z,3.83
2019-05-18T17:38:40.123Z,4.75
2019-05-18T17:41:09.435Z,3.50
2019-05-18T17:43:46.123Z,6.05
2019-05-18T17:46:15.204Z,5.10
2019-05-18T17:48:44.321Z,5.35
2019-05-18T17:51:13.218Z,6.28
2019-05-18T17:53:42.189Z,5.60
2019-05-18T17:56:11.090Z,4.50
2019-05-18T17:58:39.961Z,4.60
2019-05-18T18:01:08.957Z,4.03
2019-05-18T18:03:37.868Z,4.78
2019-05-18T18:06:06.738Z,14.65
2019-05-18T18:08:35.628Z,7.12
2019-05-18T18:11:04.594Z,5.40
2019-05-18T18:13:36.753Z,4.87
2019-05-18T18:16:05.925Z,6.15
2019-05-18T18:18:35.110Z,7.70
2019-05-18T18:21:04.347Z,4.80
2019-05-18T18:23:33.266Z,4.83
2019-05-18T18:26:02.240Z,7.75
2019-05-18T18:28:31.064Z,9.68
2019-05-18T18:30:59.837Z,7.47
2019-05-18T18:33:28.689Z,5.80
2019-05-18T18:35:57.591Z,7.70
2019-05-18T18:38:26.543Z,16.60
2019-05-18T18:40:55.359Z,23.30
2019-05-18T18:43:24.204Z,19.20
2019-05-18T18:45:53.121Z,14.65
2019-05-18T18:48:22.046Z,15.88
2019-05-18T18:50:50.929Z,12.13
2019-05-18T18:53:19.813Z,14.07
2019-05-18T18:55:48.726Z,13.85
2019-05-18T18:58:17.658Z,9.90
2019-05-18T19:00:46.697Z,16.42
2019-05-18T19:03:15.782Z,13.10
2019-05-18T19:05:44.588Z,13.08
2019-05-18T19:08:13.439Z,9.75
2019-05-18T19:10:42.309Z,17.92
2019-05-18T19:13:11.325Z,10.58
2019-05-18T19:15:40.308Z,11.08
2019-05-18T19:18:09.198Z,17.70
2019-05-18T19:20:37.988Z,12.30
2019-05-18T19:23:07.019Z,14.00
2019-05-18T19:25:35.821Z,12.37
2019-05-18T19:28:04.901Z,10.88
2019-05-18T19:30:33.791Z,11.33
2019-05-18T19:33:02.626Z,12.28
2019-05-18T19:35:31.537Z,10.45
2019-05-18T19:38:00.519Z,13.50
2019-05-18T19:40:29.344Z,14.15
2019-05-18T19:42:58.391Z,15.15
2019-05-18T19:45:27.307Z,14.90
2019-05-18T19:47:56.207Z,15.83
2019-05-18T19:50:25.249Z,17.75
2019-05-18T19:52:54.174Z,16.50
2019-05-18T19:55:23.155Z,15.08
2019-05-18T19:57:52.074Z,14.83
2019-05-18T20:00:22.991Z,16.07
2019-05-18T20:02:51.987Z,15.70
2019-05-18T20:05:20.899Z,15.48
2019-05-18T20:07:49.895Z,15.13
2019-05-18T20:10:19.214Z,15.08
2019-05-18T20:12:48.044Z,15.20
2019-05-18T20:15:17.073Z,14.70
2019-05-18T20:17:45.986Z,15.23
2019-05-18T20:20:14.899Z,15.48
2019-05-18T20:22:43.741Z,18.12
2019-05-18T20:25:12.732Z,16.80
2019-05-18T20:27:41.573Z,15.40
2019-05-18T20:30:10.882Z,16.05
2019-05-18T20:32:39.862Z,15.50
2019-05-18T20:35:08.872Z,16.15
2019-05-18T20:37:37.717Z,15.95
2019-05-18T20:40:07.954Z,16.70
2019-05-18T20:42:37.665Z,16.97
2019-05-18T20:45:07.909Z,15.63
2019-05-18T20:47:39.281Z,15.95
2019-05-18T20:50:08.287Z,17.77
2019-05-18T20:52:37.493Z,18.30
2019-05-18T20:55:06.554Z,17.60
2019-05-18T20:57:35.604Z,20.03
2019-05-18T21:00:04.903Z,20.68
2019-05-18T21:02:34.032Z,20.00
2019-05-18T21:05:03.031Z,21.68
2019-05-18T21:07:31.897Z,18.23
2019-05-18T21:10:00.919Z,19.50
2019-05-18T21:12:29.814Z,19.80
2019-05-18T21:14:58.688Z,18.98
2019-05-18T21:17:27.671Z,20.17
2019-05-18T21:19:56.633Z,18.42
2019-05-18T21:22:25.575Z,19.73
2019-05-18T21:24:54.401Z,20.57
2019-05-18T21:27:23.361Z,20.50
2019-05-18T21:29:52.348Z,21.80
2019-05-18T21:32:21.248Z,21.80
2019-05-18T21:34:50.277Z,21.42
2019-05-18T21:37:19.229Z,20.92
2019-05-18T21:39:48.096Z,20.75
2019-05-18T21:42:17.012Z,22.90
2019-05-18T21:44:46.060Z,21.93
2019-05-18T21:47:15.039Z,23.50
2019-05-18T21:49:44.059Z,21.73
2019-05-18T21:52:12.977Z,21.85
2019-05-18T21:54:41.848Z,21.60
2019-05-18T21:57:10.829Z,21.70
2019-05-18T21:59:40.061Z,22.07
2019-05-18T22:02:09.134Z,22.80
2019-05-18T22:04:37.945Z,21.97
2019-05-18T22:07:06.811Z,21.62
2019-05-18T22:09:35.757Z,22.90
2019-05-18T22:12:04.840Z,22.32
2019-05-18T22:14:33.651Z,22.20
2019-05-18T22:17:02.560Z,21.10
2019-05-18T22:19:31.493Z,23.35
2019-05-18T22:22:00.431Z,23.25
2019-05-18T22:24:29.399Z,21.48
2019-05-18T22:26:58.325Z,25.48
2019-05-18T22:29:27.140Z,22.45
2019-05-18T22:31:56.163Z,20.95
2019-05-18T22:34:25.370Z,20.90
2019-05-18T22:36:54.371Z,21.05
2019-05-18T22:39:26.231Z,19.05
2019-05-18T22:41:53.897Z,34.20
2019-05-18T22:44:22.840Z,19.80
2019-05-18T22:46:51.666Z,19.82
2019-05-18T22:49:20.754Z,18.27
2019-05-18T22:51:49.581Z,18.60
2019-05-18T22:54:18.486Z,19.10
2019-05-18T22:56:47.363Z,20.25
2019-05-18T22:59:16.299Z,23.42
2019-05-18T23:01:47.563Z,19.70
2019-05-18T23:04:16.613Z,19.87
2019-05-18T23:06:45.621Z,17.48
2019-05-18T23:09:14.546Z,17.35
2019-05-18T23:11:43.414Z,17.82
2019-05-18T23:14:12.238Z,16.90
2019-05-18T23:16:41.239Z,18.30
2019-05-18T23:19:10.128Z,19.57
2019-05-18T23:21:39.022Z,19.23
2019-05-18T23:24:07.913Z,18.40
2019-05-18T23:26:36.791Z,23.30
2019-05-18T23:29:05.674Z,21.80
2019-05-18T23:31:36.886Z,23.70
2019-05-18T23:34:05.620Z,43.10
2019-05-18T23:36:34.556Z,22.55
2019-05-18T23:39:04.832Z,18.20
2019-05-18T23:41:33.806Z,21.05
2019-05-18T23:44:02.794Z,20.82
2019-05-18T23:46:31.686Z,20.23
2019-05-18T23:49:10.509Z,19.05
2019-05-18T23:51:32.474Z,21.30
2019-05-18T23:54:01.239Z,18.92
2019-05-18T23:56:30.201Z,18.98
2019-05-18T23:58:59.237Z,18.70
